Airfield :
LOGIN :

Register | Disclaimer

   EN    FR    IT 

 










Legend :    VFR   Marginal VFR   IFR   Intensive IFR   Very Intensive IFR
Visi :
Ceiling :
>= 8 km
>= 3000ft
5 to 8 km
1000 to 3000 ft
1500m to 5 km
500 to 1000 ft
800 to 1500m
200 to 500 ft
< 800m
< 200 ft
Symbols :   Thunderstorms  Fog  Heavy snow  Heavy precipitations  Wind > 20 kt
SIGMETs :     Misc.  Thunderstorms  Icing  Turbulence  Mountain Waves  Volcanic Ashes







- Airport Elevation : 370 ft


EBBE - Beauvechain AB

CURRENT METAR :
  • 240755Z AUTO 23016KT 9999 OVC018/// 16/12 Q1017 WHT

EXPIRED METARs :
  • 240725Z AUTO 23014KT 9999 OVC018/// 16/12 Q1017 WHT
  • 240655Z AUTO 24013KT 9999 SCT018/// BKN021/// 16/11 Q1017 WHT
  • 240625Z AUTO 23014KT 9999 SCT019/// BKN022/// 16/11 Q1017 WHT
  • 240612Z AUTO 23013G23KT 9999 SCT020/// 16/11 Q1017 WHT
  • 240555Z AUTO 22014KT 9999 FEW023/// 16/11 Q1016 BLU
  • 240533Z AUTO 22011KT 9999 SCT023/// 16/11 Q1016 WHT

Expired Forecast.
No reported NOTAMs for that airfield.



MET'MAP, your aeronautical weather chart ! - Copyright ORBIFLY December 2007 - Disclaimer

ORBIFLY MET'MAP TEAM :

Programming & Development : Alexandra Zaïnal
Concept & Development : Baudouin d'Aumeries
Co-Development & Prog : Marc-Olivier Méhu
Technical & hardware support : Manuel Goepfert

Contact : metmap@orbifly.com




SOURCES & CREDITS :

   NOAA